createdAt,value
2017-07-25T00:00:02.973Z,96472.80
2017-07-25T00:04:49.569Z,96466.20
2017-07-25T00:09:36.934Z,96463.11
2017-07-25T00:14:23.597Z,96464.89
2017-07-25T00:19:10.231Z,96455.89
2017-07-25T00:23:56.861Z,96450.72
2017-07-25T00:28:43.471Z,96454.89
2017-07-25T00:33:30.128Z,96455.34
2017-07-25T00:38:16.842Z,96448.50
2017-07-25T00:43:04.236Z,96451.25
2017-07-25T00:47:50.909Z,96444.86
2017-07-25T00:52:37.557Z,96451.13
2017-07-25T00:57:24.237Z,96446.78
2017-07-25T01:02:11.604Z,96435.22
2017-07-25T01:06:58.222Z,96432.65
2017-07-25T01:11:44.844Z,96432.80
2017-07-25T01:16:31.986Z,96439.41
2017-07-25T01:21:18.623Z,96431.98
2017-07-25T01:26:05.233Z,96420.13
2017-07-25T01:30:51.884Z,96423.66
2017-07-25T01:35:38.505Z,96415.36
2017-07-25T01:40:25.134Z,96409.59
2017-07-25T01:45:11.763Z,96407.27
2017-07-25T01:49:59.134Z,96416.32
2017-07-25T01:54:45.740Z,96415.05
2017-07-25T01:59:32.357Z,96406.36
2017-07-25T02:04:18.971Z,96397.50
2017-07-25T02:09:05.633Z,96399.97
2017-07-25T02:13:52.404Z,96399.88
2017-07-25T02:18:39.779Z,96393.80
2017-07-25T02:23:26.403Z,96391.94
2017-07-25T02:28:13.021Z,96392.89
2017-07-25T02:32:59.663Z,96385.33
2017-07-25T02:37:46.322Z,96395.63
2017-07-25T02:42:33.708Z,96395.14
2017-07-25T02:47:20.350Z,96397.14
2017-07-25T02:52:06.967Z,96389.61
2017-07-25T02:56:53.666Z,96393.46
2017-07-25T03:01:40.319Z,96386.77
2017-07-25T03:06:26.974Z,96386.63
2017-07-25T03:11:13.696Z,96396.81
2017-07-25T03:16:00.337Z,96386.93
2017-07-25T03:20:46.927Z,96392.60
2017-07-25T03:25:34.482Z,96400.16
2017-07-25T03:30:21.130Z,96403.01
2017-07-25T03:35:14.597Z,96412.05
2017-07-25T03:40:01.283Z,96397.53
2017-07-25T03:44:48.665Z,96398.48
2017-07-25T03:49:35.281Z,96393.85
2017-07-25T03:54:21.910Z,96393.44
2017-07-25T03:59:08.657Z,96399.66
2017-07-25T04:03:55.277Z,96391.62
2017-07-25T04:08:41.912Z,96397.69
2017-07-25T04:13:28.520Z,96388.02
2017-07-25T04:18:15.138Z,96387.25
2017-07-25T04:23:01.744Z,96383.30
2017-07-25T04:27:48.461Z,96381.66
2017-07-25T04:32:35.954Z,96382.28
2017-07-25T04:37:22.718Z,96377.48
2017-07-25T04:42:09.339Z,96388.14
2017-07-25T04:46:55.952Z,96387.95
2017-07-25T04:51:43.213Z,96397.98
2017-07-25T04:56:32.287Z,96398.16
2017-07-25T05:01:18.952Z,96400.11
2017-07-25T05:06:05.617Z,96408.19
2017-07-25T05:10:52.302Z,96402.25
2017-07-25T05:15:38.930Z,96415.36
2017-07-25T05:20:25.580Z,96409.05
2017-07-25T05:25:12.241Z,96407.92
2017-07-25T05:29:59.614Z,96393.98
2017-07-25T05:34:46.264Z,96402.23
2017-07-25T05:39:32.910Z,96404.71
2017-07-25T05:44:19.616Z,96401.07
2017-07-25T05:49:06.233Z,96412.08
2017-07-25T05:53:52.886Z,96407.55
2017-07-25T05:58:40.244Z,96406.92
2017-07-25T06:03:26.853Z,96411.37
2017-07-25T06:08:13.549Z,96415.87
2017-07-25T06:13:00.177Z,96404.22
2017-07-25T06:17:47.555Z,96396.83
2017-07-25T06:22:34.185Z,96409.66
2017-07-25T06:27:20.946Z,96408.73
2017-07-25T06:32:07.589Z,96406.65
2017-07-25T06:36:54.956Z,96394.36
